Taftville, Connecticut
Current Conditions -  °F | °C
As of 8:52 AM on Sunday 25 Jan 2015 (Local Time) from KIJD Reporting Station
Few Clouds Few Clouds  
Wind Chill: 27°   Ceiling: Unl
Heat Index: 34°   Visibility: 10mi
Dew Point: 26°   Wind: 8mph
Humidity: 73%   Direction: 220°SW
Pressure: 29.61"   Gusts: NA
Location:  41.57°N, 72.05°W
Report Text: KIJD 251352Z AUTO 22007KT 10SM FEW060 01/M03 A2961 RMK AO2 SLP028 T00111033 $
Loading
Personal Weather Stations






























Interactive Weather Map New forecast layout! Learn more

10-Day Weather Forecast

Advertisements
Track Severe Weather on mobile